Time;durP1;ratioP1;P1;durP2;ratioP2;P2;SDS_P1;SDS_P2;PMS_P1;PMS_P2;Temp;Humidity;BMP_temperature;BMP_pressure;BME280_temperature;BME280_humidity;BME280_pressure;Samples;Min_cycle;Max_cycle;Signal;HPM_P1;HPM_P2
2022/11/11 00:01:13;;;;;;;71.45;67.38;;;12.60;99.90;;;;;;5087080;28;20383;-59
2022/11/11 00:03:40;;;;;;;70.55;66.55;;;12.60;99.90;;;;;;5086309;28;20399;-59
2022/11/11 00:06:10;;;;;;;79.03;74.70;;;12.60;99.90;;;;;;5087849;28;20391;-60
2022/11/11 00:08:35;;;;;;;80.47;75.88;;;12.60;99.90;;;;;;5088356;28;20444;-60
2022/11/11 00:11:10;;;;;;;83.90;79.30;;;12.60;99.90;;;;;;5089304;28;20460;-60
2022/11/11 00:13:37;;;;;;;81.30;76.82;;;12.60;99.90;;;;;;5076010;28;20383;-60
2022/11/11 00:16:17;;;;;;;87.32;82.25;;;12.70;99.90;;;;;;5095418;28;20399;-60
2022/11/11 00:27:04;;;;;;;80.03;75.30;;;12.60;99.90;;;;;;5077828;28;20379;-59
2022/11/11 00:29:30;;;;;;;83.63;78.90;;;12.60;99.90;;;;;;5077364;28;20449;-60
2022/11/11 00:35:51;;;;;;;78.10;73.82;;;12.60;99.90;;;;;;5076432;28;20452;-59
2022/11/11 00:37:25;;;;;;;87.75;82.68;;;12.60;99.90;;;;;;5076320;28;20419;-59
2022/11/11 00:39:50;;;;;;;81.83;76.87;;;12.60;99.90;;;;;;5076027;28;20386;-59
2022/11/11 00:42:16;;;;;;;89.47;84.63;;;12.60;99.90;;;;;;5076512;28;20694;-60
2022/11/11 00:44:41;;;;;;;88.00;83.00;;;12.60;99.90;;;;;;5058358;28;20387;-59
2022/11/11 00:52:36;;;;;;;86.10;81.17;;;12.50;99.90;;;;;;5077046;28;20387;-60
2022/11/11 00:55:01;;;;;;;90.93;85.80;;;12.60;99.90;;;;;;5076205;28;20391;-59
2022/11/11 00:57:27;;;;;;;78.53;73.78;;;12.50;99.90;;;;;;5077058;28;20447;-60
2022/11/11 00:59:52;;;;;;;79.60;75.13;;;12.60;99.90;;;;;;5058627;28;20388;-60
2022/11/11 01:02:18;;;;;;;83.00;78.17;;;12.60;99.90;;;;;;5077558;28;20421;-59
2022/11/11 01:04:43;;;;;;;82.50;77.60;;;12.60;99.90;;;;;;5074868;28;20399;-60
2022/11/11 01:07:09;;;;;;;84.63;79.90;;;12.60;99.90;;;;;;5074138;28;20398;-59
2022/11/11 01:09:34;;;;;;;85.00;79.97;;;12.60;99.90;;;;;;5073542;28;20392;-60
2022/11/11 01:12:02;;;;;;;84.30;79.43;;;12.50;99.90;;;;;;5074082;28;20392;-59
2022/11/11 01:14:29;;;;;;;72.82;68.35;;;12.50;99.90;;;;;;5076442;28;20380;-59
2022/11/11 01:16:54;;;;;;;78.20;73.70;;;12.60;99.90;;;;;;5074993;28;20822;-60
2022/11/11 01:19:20;;;;;;;80.03;75.33;;;12.60;99.90;;;;;;5075703;28;20399;-60
2022/11/11 01:21:45;;;;;;;81.57;76.83;;;12.60;99.90;;;;;;5074461;28;20445;-59
2022/11/11 01:24:11;;;;;;;83.37;78.30;;;12.70;99.90;;;;;;5075623;28;20384;-59
2022/11/11 01:26:36;;;;;;;77.38;72.80;;;12.70;99.90;;;;;;5072452;28;20451;-59
2022/11/11 01:29:02;;;;;;;76.10;71.83;;;12.70;99.90;;;;;;5069814;28;20391;-59
2022/11/11 01:31:28;;;;;;;80.47;75.70;;;12.70;99.90;;;;;;5070870;28;20387;-56
2022/11/11 01:33:53;;;;;;;76.97;72.47;;;12.60;99.90;;;;;;5071090;28;20395;-53
2022/11/11 01:36:26;;;;;;;73.47;69.18;;;12.70;99.90;;;;;;5079324;28;20947;-59
2022/11/11 01:38:55;;;;;;;77.10;72.80;;;12.70;99.90;;;;;;5088779;28;20384;-58
2022/11/11 01:41:33;;;;;;;75.43;71.30;;;12.70;99.90;;;;;;5087945;28;20527;-58
2022/11/11 01:44:38;;;;;;;81.18;76.30;;;12.60;99.90;;;;;;5087460;28;20453;-58
2022/11/11 01:47:05;;;;;;;70.07;65.78;;;12.60;99.90;;;;;;5072418;28;20782;-58
2022/11/11 01:49:37;;;;;;;82.32;77.60;;;12.60;99.90;;;;;;5070957;28;20395;-59
2022/11/11 01:52:16;;;;;;;78.43;73.90;;;12.70;99.90;;;;;;5071858;28;20675;-59
2022/11/11 01:54:52;;;;;;;81.57;76.88;;;12.60;99.90;;;;;;5088692;28;20395;-58
2022/11/11 01:57:35;;;;;;;75.93;71.53;;;12.60;99.90;;;;;;5089650;28;20903;-58
2022/11/11 02:00:06;;;;;;;68.13;64.10;;;12.70;99.90;;;;;;5072594;28;20395;-59
2022/11/11 02:02:39;;;;;;;83.70;78.83;;;12.60;99.90;;;;;;5089648;28;20478;-59
2022/11/11 02:07:56;;;;;;;74.22;69.68;;;12.60;99.90;;;;;;5072926;28;20430;-59
2022/11/11 02:10:24;;;;;;;82.70;78.00;;;12.60;99.90;;;;;;5088436;28;20413;-59
2022/11/11 02:15:35;;;;;;;75.35;71.13;;;12.60;99.90;;;;;;5068541;28;20663;-56
2022/11/11 02:18:01;;;;;;;78.90;74.32;;;12.50;99.90;;;;;;5085136;28;20396;-58
2022/11/11 02:20:31;;;;;;;75.00;70.38;;;12.60;99.90;;;;;;5068267;28;20537;-59
2022/11/11 02:23:06;;;;;;;80.80;76.13;;;12.50;99.90;;;;;;5083900;28;20386;-59
2022/11/11 02:25:32;;;;;;;75.27;70.60;;;12.50;99.90;;;;;;5067325;28;20380;-57
2022/11/11 02:28:03;;;;;;;79.65;75.03;;;12.40;99.90;;;;;;5068208;28;20406;-58
2022/11/11 02:30:28;;;;;;;80.40;75.78;;;12.40;99.90;;;;;;5068236;28;20398;-57
2022/11/11 02:32:54;;;;;;;79.40;74.95;;;12.40;99.90;;;;;;5068981;28;20388;-59
2022/11/11 02:35:23;;;;;;;83.57;78.83;;;12.40;99.90;;;;;;5086206;28;20426;-59
2022/11/11 02:37:52;;;;;;;83.18;78.38;;;12.40;99.90;;;;;;5087080;28;20408;-59
2022/11/11 02:40:26;;;;;;;87.75;82.50;;;12.30;99.90;;;;;;5087120;28;20371;-57
2022/11/11 02:42:51;;;;;;;80.00;75.37;;;12.30;99.90;;;;;;5087192;28;20384;-58
2022/11/11 02:45:17;;;;;;;74.63;70.37;;;12.20;99.90;;;;;;5089268;28;20383;-58
2022/11/11 02:47:42;;;;;;;77.95;73.45;;;12.30;99.90;;;;;;5071583;28;20395;-59
2022/11/11 02:50:08;;;;;;;80.87;76.37;;;12.20;99.90;;;;;;5088272;28;20404;-59
2022/11/11 02:52:34;;;;;;;75.77;71.37;;;12.20;99.90;;;;;;5088477;28;20387;-59
2022/11/11 02:55:00;;;;;;;78.87;74.27;;;12.10;99.90;;;;;;5089914;28;20395;-59
2022/11/11 02:57:25;;;;;;;87.07;82.32;;;12.10;99.90;;;;;;5072742;28;20396;-59
2022/11/11 02:59:51;;;;;;;82.18;77.25;;;12.10;99.90;;;;;;5089682;28;20554;-59
2022/11/11 03:02:17;;;;;;;80.97;76.63;;;12.10;99.90;;;;;;5089726;28;20458;-58
2022/11/11 03:04:42;;;;;;;82.95;78.43;;;12.10;99.90;;;;;;5073173;28;20414;-58
2022/11/11 03:07:08;;;;;;;87.10;82.27;;;12.10;99.90;;;;;;5091044;28;20679;-59
2022/11/11 03:09:33;;;;;;;83.22;78.38;;;12.10;99.90;;;;;;5072043;28;20767;-59
2022/11/11 03:11:59;;;;;;;78.47;74.00;;;12.10;99.90;;;;;;5088874;28;20395;-59
2022/11/11 03:14:24;;;;;;;82.43;77.73;;;12.20;99.90;;;;;;5090435;28;20770;-58
2022/11/11 03:19:34;;;;;;;79.13;74.68;;;12.20;99.90;;;;;;5073917;28;20398;-58
2022/11/11 03:22:02;;;;;;;79.63;74.95;;;12.10;99.90;;;;;;5090231;28;20392;-59
2022/11/11 03:25:36;;;;;;;80.43;75.80;;;12.20;99.90;;;;;;5089829;28;20379;-59
2022/11/11 03:27:13;;;;;;;83.40;78.43;;;12.20;99.90;;;;;;5073727;28;20387;-59
2022/11/11 03:29:39;;;;;;;91.78;86.32;;;12.20;99.90;;;;;;5090630;28;20392;-59
2022/11/11 03:32:06;;;;;;;85.18;80.28;;;12.10;99.90;;;;;;5089591;28;20383;-57
2022/11/11 03:34:32;;;;;;;76.95;72.47;;;12.10;99.90;;;;;;5088203;28;20654;-59
2022/11/11 03:39:41;;;;;;;81.25;76.65;;;12.10;99.90;;;;;;5073028;28;20654;-59
2022/11/11 03:42:07;;;;;;;82.43;77.80;;;12.00;99.90;;;;;;5088524;28;20372;-59
2022/11/11 03:44:32;;;;;;;80.97;76.07;;;12.00;99.90;;;;;;5072257;28;20394;-59
2022/11/11 03:46:58;;;;;;;80.43;75.65;;;11.90;99.90;;;;;;5088571;28;20387;-57
2022/11/11 03:49:24;;;;;;;78.80;74.30;;;11.90;99.90;;;;;;5089184;28;20399;-59
2022/11/11 03:51:49;;;;;;;82.90;78.30;;;11.90;99.90;;;;;;5088833;28;20419;-59
2022/11/11 03:54:14;;;;;;;77.23;72.83;;;11.90;99.90;;;;;;5072196;28;20675;-59
2022/11/11 03:56:40;;;;;;;87.53;82.47;;;11.80;99.90;;;;;;5089679;28;20403;-59
2022/11/11 03:59:06;;;;;;;91.18;85.97;;;11.80;99.90;;;;;;5073446;28;20489;-59
2022/11/11 04:12:28;;;;;;;87.13;82.05;;;11.80;99.90;;;;;;5071821;28;20374;-59
2022/11/11 04:17:38;;;;;;;89.55;84.32;;;11.70;99.90;;;;;;5071548;28;20770;-58
2022/11/11 04:22:48;;;;;;;89.10;83.77;;;11.70;99.90;;;;;;5070290;28;20431;-59
2022/11/11 04:30:42;;;;;;;81.38;76.85;;;11.60;99.90;;;;;;5069941;28;20410;-58
2022/11/11 04:33:08;;;;;;;79.07;74.47;;;11.50;99.90;;;;;;5068720;28;20387;-55
2022/11/11 04:35:34;;;;;;;77.93;73.43;;;11.50;99.90;;;;;;5085829;28;20403;-58
2022/11/11 04:43:31;;;;;;;84.93;79.95;;;11.50;99.90;;;;;;5072520;28;20484;-59
2022/11/11 04:46:00;;;;;;;85.43;80.53;;;11.50;99.90;;;;;;5089221;28;20480;-59
2022/11/11 04:48:26;;;;;;;89.47;84.22;;;11.60;99.90;;;;;;5088546;28;20399;-59
2022/11/11 04:51:13;;;;;;;77.60;73.07;;;11.60;99.90;;;;;;5072308;28;20442;-59
2022/11/11 04:53:39;;;;;;;79.80;75.22;;;11.60;99.90;;;;;;5086333;28;20391;-59
2022/11/11 04:59:14;;;;;;;84.13;79.22;;;11.50;99.90;;;;;;5072021;28;20387;-59
2022/11/11 05:04:18;;;;;;;79.95;75.47;;;11.50;99.90;;;;;;5073272;28;20924;-58
2022/11/11 05:09:28;;;;;;;80.40;75.57;;;11.40;99.90;;;;;;5073111;28;20383;-59
2022/11/11 05:11:53;;;;;;;79.77;75.00;;;11.40;99.90;;;;;;5089624;28;20379;-58
2022/11/11 05:22:38;;;;;;;78.70;74.10;;;11.40;99.90;;;;;;5072195;28;20418;-58
2022/11/11 05:27:49;;;;;;;84.27;79.43;;;11.40;99.90;;;;;;5072325;28;20923;-58
2022/11/11 05:30:15;;;;;;;82.07;77.37;;;11.30;99.90;;;;;;5088766;28;20419;-57
2022/11/11 05:32:41;;;;;;;76.82;72.45;;;11.20;99.90;;;;;;5088619;28;20694;-59
2022/11/11 05:35:08;;;;;;;78.22;73.72;;;11.20;99.90;;;;;;5087701;28;20395;-59
2022/11/11 05:37:34;;;;;;;89.20;83.85;;;11.20;99.90;;;;;;5086682;28;20399;-59
2022/11/11 05:40:00;;;;;;;74.13;69.53;;;11.20;99.90;;;;;;5088030;28;20469;-58
2022/11/11 05:42:25;;;;;;;80.30;75.70;;;11.20;99.90;;;;;;5070969;28;20387;-58
2022/11/11 05:44:51;;;;;;;71.05;66.65;;;11.10;99.90;;;;;;5088252;28;20657;-58
2022/11/11 05:47:17;;;;;;;78.05;73.45;;;11.10;99.90;;;;;;5083871;28;20430;-59
2022/11/11 05:49:43;;;;;;;72.03;67.57;;;11.10;99.90;;;;;;5081690;28;20403;-59
2022/11/11 05:52:10;;;;;;;77.20;72.40;;;11.20;99.90;;;;;;5081253;28;20651;-59
2022/11/11 05:54:35;;;;;;;88.00;82.68;;;11.20;99.90;;;;;;5082029;28;20400;-59
2022/11/11 05:57:02;;;;;;;83.53;78.63;;;11.30;99.90;;;;;;5081224;28;20408;-59
2022/11/11 05:59:27;;;;;;;75.35;70.78;;;11.30;99.90;;;;;;5080787;28;20716;-59
2022/11/11 06:01:53;;;;;;;79.82;74.95;;;11.30;99.90;;;;;;5081587;28;20478;-59
2022/11/11 06:04:19;;;;;;;86.13;81.03;;;11.30;99.90;;;;;;5066015;28;20379;-59
2022/11/11 06:06:44;;;;;;;86.50;81.10;;;11.30;99.90;;;;;;5068048;28;20454;-59
2022/11/11 06:09:10;;;;;;;82.07;77.37;;;11.30;99.90;;;;;;5080005;28;20591;-59
2022/11/11 06:11:35;;;;;;;79.20;74.15;;;11.30;99.90;;;;;;5078844;28;20953;-59
2022/11/11 06:14:01;;;;;;;76.47;71.57;;;11.30;99.90;;;;;;5063192;28;20462;-59
2022/11/11 06:16:27;;;;;;;85.15;79.63;;;11.30;99.90;;;;;;5078055;28;20482;-59
2022/11/11 06:18:52;;;;;;;79.80;74.60;;;11.30;99.90;;;;;;5057861;28;20384;-59
2022/11/11 06:21:18;;;;;;;85.28;79.80;;;11.30;99.90;;;;;;5060012;28;20387;-59
2022/11/11 06:23:44;;;;;;;82.17;77.33;;;11.20;99.90;;;;;;5075540;28;20742;-58
2022/11/11 06:26:14;;;;;;;79.80;74.63;;;11.20;99.90;;;;;;5059161;28;20899;-59
2022/11/11 06:28:42;;;;;;;84.32;79.18;;;11.20;99.90;;;;;;5077088;28;20788;-59
2022/11/11 06:31:09;;;;;;;80.90;75.78;;;11.10;99.90;;;;;;5075262;28;20391;-58
2022/11/11 06:33:36;;;;;;;81.45;76.43;;;11.20;99.90;;;;;;5076418;28;20623;-59
2022/11/11 06:36:02;;;;;;;85.55;80.50;;;11.20;99.90;;;;;;5076847;28;20601;-59
2022/11/11 06:38:28;;;;;;;78.93;74.18;;;11.20;99.90;;;;;;5063827;28;20468;-59
2022/11/11 06:40:53;;;;;;;86.97;81.53;;;11.30;99.90;;;;;;5079922;28;20383;-58
2022/11/11 06:43:19;;;;;;;84.45;79.18;;;11.40;99.90;;;;;;5080437;28;20383;-59
2022/11/11 06:45:48;;;;;;;86.30;81.03;;;11.30;99.90;;;;;;5082928;28;20701;-59
2022/11/11 06:48:14;;;;;;;84.03;78.95;;;11.20;99.90;;;;;;5064856;28;20915;-59
2022/11/11 06:50:39;;;;;;;81.20;75.83;;;11.20;99.90;;;;;;5080020;28;20763;-58
2022/11/11 06:53:11;;;;;;;76.40;71.30;;;11.10;99.90;;;;;;5063847;28;20383;-59
2022/11/11 06:55:36;;;;;;;78.22;72.90;;;11.10;99.90;;;;;;5077998;28;20697;-59
2022/11/11 06:58:17;;;;;;;80.55;74.90;;;11.10;99.90;;;;;;5078737;28;20408;-59
2022/11/11 07:00:44;;;;;;;78.32;73.43;;;11.20;99.90;;;;;;5063827;28;20585;-59
2022/11/11 07:03:12;;;;;;;75.18;70.28;;;11.10;99.90;;;;;;5077360;28;20607;-59
2022/11/11 07:05:37;;;;;;;77.55;72.30;;;11.10;99.90;;;;;;5058022;28;20413;-59
2022/11/11 07:08:05;;;;;;;74.47;69.63;;;11.10;99.90;;;;;;5075941;28;20497;-59
2022/11/11 07:10:32;;;;;;;79.40;74.25;;;11.10;99.90;;;;;;5060506;28;20670;-59
2022/11/11 07:12:58;;;;;;;80.60;74.95;;;11.10;99.90;;;;;;5057508;28;20415;-59
2022/11/11 07:15:24;;;;;;;75.97;70.88;;;11.00;99.90;;;;;;5057455;28;20490;-59
2022/11/11 07:17:50;;;;;;;76.25;70.65;;;11.00;99.90;;;;;;5054818;28;20408;-59
2022/11/11 07:20:15;;;;;;;71.70;66.47;;;11.00;99.90;;;;;;5072200;28;20392;-59
2022/11/11 07:22:41;;;;;;;72.55;67.63;;;11.10;99.90;;;;;;5074321;28;20478;-59
2022/11/11 07:25:07;;;;;;;76.17;71.03;;;11.00;99.90;;;;;;5072901;28;20427;-59
2022/11/11 07:27:36;;;;;;;77.53;72.03;;;11.00;99.90;;;;;;5056399;28;20514;-59
2022/11/11 07:30:02;;;;;;;78.55;73.00;;;11.00;99.90;;;;;;5057194;28;20871;-59
2022/11/11 07:32:27;;;;;;;77.32;72.13;;;11.00;99.90;;;;;;5071560;28;20976;-59
2022/11/11 07:34:53;;;;;;;80.93;75.47;;;11.00;99.90;;;;;;5057379;28;20375;-59
2022/11/11 07:37:19;;;;;;;79.77;74.47;;;11.00;99.90;;;;;;5058118;28;20422;-59
2022/11/11 07:39:44;;;;;;;72.37;67.10;;;11.00;99.90;;;;;;5055937;28;20605;-59
2022/11/11 07:42:09;;;;;;;81.60;75.90;;;11.00;99.90;;;;;;5057639;28;20474;-59
2022/11/11 07:44:35;;;;;;;91.83;86.07;;;11.10;99.90;;;;;;5074497;28;20391;-59
2022/11/11 07:47:00;;;;;;;90.25;84.22;;;11.10;99.90;;;;;;5075950;28;20479;-59
2022/11/11 07:49:26;;;;;;;92.50;86.03;;;11.10;99.90;;;;;;5072145;28;20379;-58
2022/11/11 07:51:51;;;;;;;89.97;84.10;;;11.10;99.90;;;;;;5072876;28;20672;-59
2022/11/11 07:54:17;;;;;;;92.30;85.88;;;11.00;99.90;;;;;;5055769;28;20380;-57
2022/11/11 07:56:42;;;;;;;89.67;83.53;;;10.90;99.90;;;;;;5072464;28;20770;-57
2022/11/11 07:59:08;;;;;;;84.45;78.53;;;10.90;99.90;;;;;;5057354;28;20680;-59
2022/11/11 08:01:33;;;;;;;86.28;80.00;;;10.90;99.90;;;;;;5072963;28;20483;-59
2022/11/11 08:03:59;;;;;;;85.20;79.40;;;10.90;99.90;;;;;;5055395;28;20623;-59
2022/11/11 08:06:24;;;;;;;79.43;74.03;;;11.00;99.90;;;;;;5074228;28;20391;-59
2022/11/11 08:08:50;;;;;;;80.87;75.03;;;11.00;99.90;;;;;;5058926;28;20670;-59
2022/11/11 08:11:16;;;;;;;83.77;78.07;;;11.00;99.90;;;;;;5074668;28;20438;-56
2022/11/11 08:13:43;;;;;;;80.68;75.03;;;11.00;99.90;;;;;;5070385;28;20396;-57
2022/11/11 08:16:13;;;;;;;85.40;79.70;;;11.00;99.90;;;;;;5071838;28;20440;-57
2022/11/11 08:18:40;;;;;;;83.05;76.78;;;11.00;99.90;;;;;;5073951;28;20406;-59
2022/11/11 08:21:06;;;;;;;76.50;70.50;;;11.10;99.90;;;;;;5074876;28;20384;-59
2022/11/11 08:23:32;;;;;;;73.50;68.47;;;11.00;99.90;;;;;;5074347;28;20453;-58
2022/11/11 08:26:00;;;;;;;78.57;72.95;;;11.00;99.90;;;;;;5071941;28;20449;-59
2022/11/11 08:28:27;;;;;;;77.88;72.35;;;11.00;99.90;;;;;;5071930;28;20486;-59
2022/11/11 08:30:53;;;;;;;73.90;68.63;;;11.10;99.90;;;;;;5067097;28;20545;-59
2022/11/11 08:33:19;;;;;;;71.97;66.70;;;11.10;99.90;;;;;;5067797;28;20633;-59
2022/11/11 08:35:45;;;;;;;77.63;72.22;;;11.10;99.90;;;;;;5067770;28;20533;-59
2022/11/11 08:38:11;;;;;;;75.93;70.67;;;11.10;99.90;;;;;;5054199;28;20699;-59
2022/11/11 08:40:37;;;;;;;76.50;71.40;;;11.10;99.90;;;;;;5071515;28;20864;-59
2022/11/11 08:43:03;;;;;;;73.63;68.63;;;11.00;99.90;;;;;;5072164;28;20384;-59
2022/11/11 08:45:28;;;;;;;76.33;71.00;;;11.10;99.90;;;;;;5055512;28;20534;-59
2022/11/11 08:47:54;;;;;;;77.13;71.75;;;11.10;99.90;;;;;;5067550;28;20372;-59
2022/11/11 08:50:19;;;;;;;74.47;69.47;;;11.10;99.90;;;;;;5068544;28;20383;-59
2022/11/11 08:52:49;;;;;;;71.15;65.88;;;11.20;99.90;;;;;;5066916;28;20385;-59
2022/11/11 08:55:15;;;;;;;80.82;75.38;;;11.30;99.90;;;;;;5063655;28;20465;-58
2022/11/11 08:57:41;;;;;;;86.30;80.60;;;11.30;99.90;;;;;;5063856;28;20499;-59
2022/11/11 09:00:08;;;;;;;75.57;70.53;;;11.30;99.90;;;;;;5052995;28;20372;-59
2022/11/11 09:02:34;;;;;;;78.35;73.10;;;11.30;99.90;;;;;;5068059;28;20459;-59
2022/11/11 09:04:59;;;;;;;79.22;74.07;;;11.30;99.90;;;;;;5067857;28;20375;-58
2022/11/11 09:07:26;;;;;;;77.07;71.43;;;11.30;99.90;;;;;;5067118;28;20388;-59
2022/11/11 09:09:51;;;;;;;76.50;71.03;;;11.30;99.90;;;;;;5071977;28;20542;-59
2022/11/11 09:12:17;;;;;;;76.22;71.25;;;11.20;99.90;;;;;;5075258;28;20674;-59
2022/11/11 09:14:42;;;;;;;79.87;74.37;;;11.30;99.90;;;;;;5057977;28;20466;-59
2022/11/11 09:17:08;;;;;;;79.90;74.43;;;11.30;99.90;;;;;;5076205;28;20411;-59
2022/11/11 09:19:33;;;;;;;81.82;76.07;;;11.40;99.90;;;;;;5074575;28;20799;-59
2022/11/11 09:21:59;;;;;;;81.70;76.27;;;11.40;99.90;;;;;;5059000;28;20554;-59
2022/11/11 09:24:24;;;;;;;84.77;79.47;;;11.40;99.90;;;;;;5056983;28;20712;-59
2022/11/11 09:26:50;;;;;;;81.07;75.35;;;11.30;99.90;;;;;;5071937;28;20441;-59
2022/11/11 09:29:17;;;;;;;80.45;75.13;;;11.30;99.90;;;;;;5068405;28;20406;-59
2022/11/11 09:31:42;;;;;;;76.97;71.90;;;11.40;99.90;;;;;;5070434;28;20418;-57
2022/11/11 09:34:08;;;;;;;82.47;77.10;;;11.30;99.90;;;;;;5070483;28;20450;-59
2022/11/11 09:36:34;;;;;;;78.90;73.70;;;11.40;99.90;;;;;;5071368;28;20916;-59
2022/11/11 09:38:59;;;;;;;76.40;71.15;;;11.40;99.90;;;;;;5073283;28;20947;-56
2022/11/11 09:41:49;;;;;;;77.73;72.57;;;11.30;99.90;;;;;;5057733;28;20510;-59
2022/11/11 09:44:53;;;;;;;79.85;74.03;;;11.30;99.90;;;;;;5074634;28;20384;-58
2022/11/11 09:47:40;;;;;;;80.07;74.22;;;11.30;99.90;;;;;;5060488;28;20475;-58
2022/11/11 09:50:21;;;;;;;79.07;73.30;;;11.30;99.90;;;;;;5057022;28;20379;-59
2022/11/11 09:53:13;;;;;;;79.10;73.88;;;11.20;99.90;;;;;;5075122;28;20686;-59
2022/11/11 09:55:43;;;;;;;79.95;74.55;;;11.20;99.90;;;;;;5072909;28;20708;-58
2022/11/11 09:58:18;;;;;;;77.75;72.43;;;11.20;99.90;;;;;;5072293;28;20403;-60
2022/11/11 10:00:48;;;;;;;80.10;74.77;;;11.20;99.90;;;;;;5072235;28;20384;-60
2022/11/11 10:03:22;;;;;;;83.05;77.25;;;11.30;99.90;;;;;;5055582;28;20391;-59
2022/11/11 10:06:06;;;;;;;82.40;76.90;;;11.30;99.90;;;;;;5072179;28;20476;-60
2022/11/11 10:08:42;;;;;;;84.43;78.78;;;11.30;99.90;;;;;;5075911;28;20391;-57
2022/11/11 10:11:17;;;;;;;78.70;73.57;;;11.30;99.90;;;;;;5080432;28;20409;-58
2022/11/11 10:13:43;;;;;;;81.25;76.13;;;11.30;99.90;;;;;;5064324;28;20388;-59
2022/11/11 10:16:37;;;;;;;84.70;79.00;;;11.30;99.90;;;;;;5062331;28;20780;-59
2022/11/11 10:19:30;;;;;;;86.97;81.18;;;11.40;99.90;;;;;;5034316;28;20512;-59
2022/11/11 10:22:04;;;;;;;91.82;85.68;;;11.40;99.90;;;;;;5061253;28;20378;-59
2022/11/11 10:24:34;;;;;;;84.97;79.28;;;11.40;99.90;;;;;;5078334;28;20462;-60
2022/11/11 10:27:05;;;;;;;81.55;76.05;;;11.40;99.90;;;;;;5081518;28;20823;-55
2022/11/11 10:29:43;;;;;;;86.35;80.50;;;11.40;99.90;;;;;;5084764;28;20415;-58
2022/11/11 10:32:14;;;;;;;79.20;74.05;;;11.50;99.90;;;;;;5081899;28;20390;-61
2022/11/11 10:34:40;;;;;;;91.80;85.70;;;11.50;99.90;;;;;;5064758;28;20461;-59
2022/11/11 10:37:21;;;;;;;86.97;81.75;;;11.50;99.90;;;;;;5080477;28;20419;-59
2022/11/11 10:40:08;;;;;;;85.30;79.50;;;11.60;99.90;;;;;;5080290;28;20488;-60
2022/11/11 10:42:33;;;;;;;80.78;75.80;;;11.50;99.90;;;;;;5063754;28;20491;-61
2022/11/11 10:45:00;;;;;;;83.72;78.55;;;11.60;99.90;;;;;;5082887;28;20474;-60
2022/11/11 10:47:51;;;;;;;82.22;77.22;;;11.50;99.90;;;;;;5065491;28;20437;-60
2022/11/11 10:50:30;;;;;;;84.30;78.68;;;11.50;99.90;;;;;;5081760;28;20383;-60
2022/11/11 10:52:59;;;;;;;80.60;75.38;;;11.50;99.90;;;;;;5076630;28;20384;-60
2022/11/11 10:55:42;;;;;;;84.10;78.65;;;11.50;99.90;;;;;;5059108;28;20870;-61
2022/11/11 10:58:21;;;;;;;82.43;76.93;;;11.50;99.90;;;;;;5062160;28;20550;-60
2022/11/11 11:00:48;;;;;;;78.20;73.30;;;11.50;99.90;;;;;;5060950;28;20380;-60
2022/11/11 11:03:29;;;;;;;80.40;75.13;;;11.50;99.90;;;;;;5078202;28;20372;-60
2022/11/11 11:06:21;;;;;;;79.72;74.15;;;11.50;99.90;;;;;;5075613;28;20403;-60
2022/11/11 11:08:50;;;;;;;83.10;77.60;;;11.50;99.90;;;;;;5054584;28;20457;-60
2022/11/11 11:11:29;;;;;;;89.25;83.72;;;11.50;99.90;;;;;;5076936;28;20391;-60
2022/11/11 11:13:59;;;;;;;77.18;72.05;;;11.40;99.90;;;;;;5078965;28;20396;-61
2022/11/11 11:16:31;;;;;;;79.57;74.55;;;11.50;99.90;;;;;;5061716;28;20866;-59
2022/11/11 11:19:20;;;;;;;84.63;79.38;;;11.50;99.90;;;;;;5081227;28;20407;-60
2022/11/11 11:21:56;;;;;;;77.22;72.35;;;11.50;99.90;;;;;;5062318;28;20406;-60
2022/11/11 11:24:27;;;;;;;74.43;69.63;;;11.60;99.90;;;;;;5078881;28;20388;-61
2022/11/11 11:26:58;;;;;;;76.15;71.05;;;11.60;99.90;;;;;;5062707;28;20391;-61
2022/11/11 11:29:29;;;;;;;77.82;73.00;;;11.50;99.90;;;;;;5064695;28;20476;-60
2022/11/11 11:31:55;;;;;;;84.72;79.32;;;11.50;99.90;;;;;;5082080;28;20472;-61
2022/11/11 11:34:47;;;;;;;80.47;75.10;;;11.50;99.90;;;;;;5081870;28;20659;-61
2022/11/11 11:37:13;;;;;;;80.70;75.40;;;11.50;99.90;;;;;;5081408;28;20717;-61
2022/11/11 11:39:40;;;;;;;81.10;75.78;;;11.50;99.90;;;;;;5079594;28;20376;-61
2022/11/11 11:42:25;;;;;;;83.78;78.50;;;11.50;99.90;;;;;;5079178;28;20916;-61
2022/11/11 11:44:51;;;;;;;80.03;74.63;;;11.50;99.90;;;;;;5078127;28;20441;-61
2022/11/11 11:47:58;;;;;;;85.63;80.00;;;11.40;99.90;;;;;;5079782;28;20391;-60
2022/11/11 11:50:35;;;;;;;81.53;76.13;;;11.50;99.90;;;;;;5061271;28;20521;-59
2022/11/11 11:53:36;;;;;;;79.38;74.35;;;11.50;99.90;;;;;;5060325;28;20394;-60
2022/11/11 11:56:58;;;;;;;80.22;74.97;;;11.50;99.90;;;;;;5061623;28;20396;-60
2022/11/11 11:59:38;;;;;;;84.90;79.53;;;11.50;99.90;;;;;;5062474;28;20396;-61
2022/11/11 12:02:24;;;;;;;85.63;80.35;;;11.50;99.90;;;;;;5082294;28;20687;-60
2022/11/11 12:05:01;;;;;;;80.28;75.32;;;11.50;99.90;;;;;;5066205;28;20387;-60
2022/11/11 12:07:43;;;;;;;81.95;76.70;;;11.40;99.90;;;;;;5065244;28;20376;-60
2022/11/11 12:10:30;;;;;;;83.47;78.30;;;11.50;99.90;;;;;;5063726;28;20433;-60
2022/11/11 12:13:20;;;;;;;85.47;79.97;;;11.50;99.90;;;;;;5065917;28;20390;-59
2022/11/11 12:16:06;;;;;;;80.88;75.50;;;11.50;99.90;;;;;;5082594;28;20372;-59
2022/11/11 12:19:00;;;;;;;79.18;74.18;;;11.50;99.90;;;;;;5083370;28;20701;-58
2022/11/11 12:21:54;;;;;;;83.18;77.38;;;11.50;99.90;;;;;;5066362;28;20375;-59
2022/11/11 12:24:38;;;;;;;80.18;74.93;;;11.50;99.90;;;;;;5064242;28;20379;-59
2022/11/11 12:27:25;;;;;;;77.05;72.28;;;11.50;99.90;;;;;;5064584;28;20876;-58
2022/11/11 12:30:07;;;;;;;84.70;79.17;;;11.50;99.90;;;;;;5063825;28;20392;-58
2022/11/11 12:32:54;;;;;;;85.97;80.83;;;11.50;99.90;;;;;;5080507;28;20467;-59
2022/11/11 12:35:36;;;;;;;78.82;74.10;;;11.50;99.90;;;;;;5064188;28;20375;-60
2022/11/11 12:38:19;;;;;;;79.55;74.55;;;11.50;99.90;;;;;;5066884;28;20414;-59
2022/11/11 12:40:56;;;;;;;76.80;72.03;;;11.50;99.90;;;;;;5083476;28;20392;-60
2022/11/11 12:43:48;;;;;;;81.18;76.22;;;11.50;99.90;;;;;;5065628;28;20891;-60
2022/11/11 12:46:23;;;;;;;82.25;77.10;;;11.60;99.90;;;;;;5066642;28;20391;-60
2022/11/11 12:49:13;;;;;;;72.17;67.50;;;11.60;99.90;;;;;;5066600;28;20493;-60
2022/11/11 12:52:21;;;;;;;72.47;67.82;;;11.70;99.90;;;;;;5074962;28;20728;-60
2022/11/11 12:55:15;;;;;;;73.05;68.38;;;11.70;99.90;;;;;;5083606;28;20384;-59
2022/11/11 12:58:18;;;;;;;76.72;72.00;;;11.60;99.90;;;;;;5063543;28;20439;-59
2022/11/11 13:01:02;;;;;;;75.85;71.25;;;11.60;99.90;;;;;;5063633;28;20379;-58
2022/11/11 13:03:49;;;;;;;78.90;73.67;;;11.60;99.90;;;;;;5081614;28;20392;-58
2022/11/11 13:06:17;;;;;;;75.10;70.50;;;11.70;99.90;;;;;;5081248;28;20380;-59
2022/11/11 13:09:06;;;;;;;74.47;69.85;;;11.60;99.90;;;;;;5063363;28;20714;-59
2022/11/11 13:12:12;;;;;;;69.75;65.43;;;11.60;99.90;;;;;;5066291;28;20387;-59
2022/11/11 13:15:03;;;;;;;68.18;63.83;;;11.60;99.90;;;;;;5069174;28;20418;-60
2022/11/11 13:17:31;;;;;;;62.92;59.03;;;11.60;99.90;;;;;;5057846;28;20415;-59
2022/11/11 13:20:17;;;;;;;68.05;63.75;;;11.70;99.90;;;;;;5083845;28;20383;-59
2022/11/11 13:22:42;;;;;;;72.55;68.15;;;11.70;99.90;;;;;;5064022;28;20508;-59
2022/11/11 13:25:15;;;;;;;77.97;73.05;;;11.80;99.90;;;;;;5062577;28;20466;-59
2022/11/11 13:27:50;;;;;;;79.90;74.95;;;11.80;99.90;;;;;;5060918;28;20396;-60
2022/11/11 13:30:40;;;;;;;80.32;75.60;;;11.70;99.90;;;;;;5060480;28;20860;-59
2022/11/11 13:33:36;;;;;;;81.45;76.50;;;11.80;99.90;;;;;;5080061;28;20388;-59
2022/11/11 13:36:03;;;;;;;72.10;67.50;;;11.70;99.90;;;;;;5082397;28;20733;-59
2022/11/11 13:38:35;;;;;;;76.13;71.53;;;11.70;99.90;;;;;;5066558;28;20713;-59
2022/11/11 13:41:04;;;;;;;77.30;72.43;;;11.80;99.90;;;;;;5067209;28;20445;-59
2022/11/11 13:43:39;;;;;;;78.77;74.27;;;11.90;99.90;;;;;;5069588;28;20470;-58
2022/11/11 13:46:06;;;;;;;74.28;69.90;;;11.90;99.90;;;;;;5072436;28;20380;-58
2022/11/11 13:48:35;;;;;;;82.68;77.65;;;12.00;99.90;;;;;;5087721;28;20376;-61
2022/11/11 13:51:21;;;;;;;78.18;73.40;;;12.00;99.90;;;;;;5085226;28;20437;-60
2022/11/11 13:53:47;;;;;;;76.40;71.80;;;11.90;99.90;;;;;;5083130;28;20436;-60
2022/11/11 13:56:24;;;;;;;75.85;71.30;;;12.00;99.90;;;;;;5066943;28;20407;-60
2022/11/11 13:58:49;;;;;;;79.20;74.38;;;12.00;99.90;;;;;;5085579;28;20439;-60
2022/11/11 14:01:16;;;;;;;85.22;80.15;;;12.00;99.90;;;;;;5069206;28;20422;-60
2022/11/11 14:03:44;;;;;;;72.50;68.00;;;11.90;99.90;;;;;;5088191;28;20972;-60